Time;durP1;ratioP1;P1;durP2;ratioP2;P2;SDS_P1;SDS_P2;PMS_P1;PMS_P2;Temp;Humidity;BMP_temperature;BMP_pressure;BME280_temperature;BME280_humidity;BME280_pressure;Samples;Min_cycle;Max_cycle;Signal;HPM_P1;HPM_P2
2023/08/10 00:00:53;;;;;;;4.10;2.12;;;;;;;25.76;43.67;99925.94;4302361;33;33978;-68
2023/08/10 00:03:20;;;;;;;3.92;2.22;;;;;;;25.76;43.59;99926.75;4289199;33;33763;-70
2023/08/10 00:05:48;;;;;;;3.05;1.83;;;;;;;25.75;43.54;99925.06;4288518;33;33556;-70
2023/08/10 00:08:16;;;;;;;4.78;2.20;;;;;;;25.75;43.50;99921.50;4265303;33;32502;-68
2023/08/10 00:10:49;;;;;;;4.20;2.12;;;;;;;25.75;43.45;99916.87;4277434;33;33764;-68
2023/08/10 00:13:17;;;;;;;3.45;2.08;;;;;;;25.73;43.48;99916.25;4277384;33;33819;-70
2023/08/10 00:15:44;;;;;;;3.12;1.90;;;;;;;25.74;43.43;99917.09;4302252;33;33459;-67
2023/08/10 00:18:13;;;;;;;3.60;2.10;;;;;;;25.73;43.25;99920.91;4277528;33;32454;-68
2023/08/10 00:20:40;;;;;;;4.37;1.77;;;;;;;25.73;43.32;99920.91;4277057;33;34563;-68
2023/08/10 00:23:08;;;;;;;3.30;1.90;;;;;;;25.70;43.27;99920.31;4265339;33;33188;-69
2023/08/10 00:25:35;;;;;;;3.30;1.80;;;;;;;25.70;43.20;99925.78;4265318;33;32731;-71
2023/08/10 00:28:04;;;;;;;3.28;1.65;;;;;;;25.70;43.20;99919.50;4268288;33;33482;-68
2023/08/10 00:30:31;;;;;;;5.25;2.40;;;;;;;25.69;43.26;99915.94;4262710;33;33682;-70
2023/08/10 00:32:59;;;;;;;7.93;2.45;;;;;;;25.70;43.26;99919.50;4274520;33;33815;-68
2023/08/10 00:35:26;;;;;;;4.00;1.87;;;;;;;25.69;43.29;99912.34;4287442;33;34268;-69
2023/08/10 00:37:54;;;;;;;4.37;1.92;;;;;;;25.69;43.25;99912.34;4274655;33;34227;-68
2023/08/10 00:40:22;;;;;;;3.55;1.98;;;;;;;25.69;43.21;99915.06;4287441;33;33886;-68
2023/08/10 00:42:50;;;;;;;3.67;2.10;;;;;;;25.68;43.15;99914.25;4274469;33;34169;-68
2023/08/10 00:45:19;;;;;;;2.75;1.73;;;;;;;25.68;43.11;99914.25;4274436;33;34420;-68
2023/08/10 00:47:46;;;;;;;4.03;2.08;;;;;;;25.66;43.05;99919.13;4262745;33;33520;-69
2023/08/10 00:50:14;;;;;;;3.33;1.95;;;;;;;25.65;43.00;99914.75;4250816;33;32735;-71
2023/08/10 00:52:41;;;;;;;3.58;2.00;;;;;;;25.65;42.97;99909.28;4262503;33;32595;-68
2023/08/10 00:55:09;;;;;;;3.30;1.70;;;;;;;25.64;42.96;99913.06;4274095;33;33886;-68
2023/08/10 00:57:37;;;;;;;2.37;1.67;;;;;;;25.64;42.98;99909.50;4274346;33;33296;-68
2023/08/10 01:00:10;;;;;;;3.37;2.05;;;;;;;25.63;42.95;99908.66;4261462;33;32417;-69
2023/08/10 01:02:38;;;;;;;3.70;2.20;;;;;;;25.64;42.92;99904.84;4288985;33;33569;-68
2023/08/10 01:05:07;;;;;;;3.58;1.98;;;;;;;25.64;42.91;99912.22;4276571;33;32810;-69
2023/08/10 01:07:57;;;;;;;3.90;2.30;;;;;;;25.62;42.84;99906.19;4276368;33;33384;-69
2023/08/10 01:10:44;;;;;;;4.07;1.90;;;;;;;25.61;42.82;99916.28;4287865;33;33090;-68
2023/08/10 01:13:17;;;;;;;3.83;1.92;;;;;;;25.64;42.71;99914.97;4277078;33;33903;-68
2023/08/10 01:15:50;;;;;;;5.82;1.70;;;;;;;25.60;42.74;99911.91;4301379;33;33567;-68
2023/08/10 01:18:23;;;;;;;3.10;1.92;;;;;;;25.59;42.70;99910.19;4277705;33;34163;-68
2023/08/10 01:20:53;;;;;;;3.95;1.90;;;;;;;25.59;42.71;99912.94;4278859;33;33815;-68
2023/08/10 01:23:32;;;;;;;5.15;2.05;;;;;;;25.58;42.61;99911.28;4278541;33;34674;-70
2023/08/10 01:25:59;;;;;;;3.95;1.87;;;;;;;25.59;42.56;99907.47;4278415;33;34213;-68
2023/08/10 01:28:27;;;;;;;3.03;1.95;;;;;;;25.59;42.59;99912.94;4287545;33;34140;-68
2023/08/10 01:30:55;;;;;;;3.58;1.70;;;;;;;25.57;42.62;99912.34;4275810;33;34363;-68
2023/08/10 01:33:23;;;;;;;3.95;1.85;;;;;;;25.57;42.58;99917.00;4275620;33;34627;-68
2023/08/10 01:35:50;;;;;;;2.72;1.80;;;;;;;25.56;42.56;99916.16;4287562;33;33802;-69
2023/08/10 01:38:18;;;;;;;4.60;1.67;;;;;;;25.55;42.56;99917.22;4263921;33;34357;-69
2023/08/10 01:40:47;;;;;;;3.72;2.00;;;;;;;25.55;42.52;99914.47;4288893;33;33965;-68
2023/08/10 01:43:15;;;;;;;3.77;1.50;;;;;;;25.55;42.46;99917.22;4275913;33;34030;-68
2023/08/10 01:46:02;;;;;;;4.05;2.08;;;;;;;25.57;42.41;99917.00;4288923;33;34535;-68
2023/08/10 01:48:33;;;;;;;2.20;1.37;;;;;;;25.56;42.40;99918.91;4275721;33;33001;-68
2023/08/10 01:51:01;;;;;;;3.55;1.80;;;;;;;25.55;42.41;99924.59;4275753;33;33516;-68
2023/08/10 01:53:30;;;;;;;3.75;2.17;;;;;;;25.54;42.38;99923.75;4252127;33;34272;-68
2023/08/10 01:55:58;;;;;;;3.87;2.25;;;;;;;25.53;42.37;99924.00;4275841;33;32775;-68
2023/08/10 01:58:25;;;;;;;3.40;1.85;;;;;;;25.54;42.36;99915.56;4276365;33;32977;-68
2023/08/10 02:00:54;;;;;;;3.47;1.87;;;;;;;25.53;42.35;99911.16;4278636;33;32949;-68
2023/08/10 02:03:22;;;;;;;2.85;1.67;;;;;;;25.52;42.32;99914.97;4266592;33;33469;-68
2023/08/10 02:05:50;;;;;;;2.78;1.87;;;;;;;25.52;42.27;99920.44;4302668;33;33849;-68
2023/08/10 02:08:18;;;;;;;3.70;2.00;;;;;;;25.52;42.29;99914.97;4303015;33;34228;-68
2023/08/10 02:10:46;;;;;;;2.97;1.90;;;;;;;25.52;42.25;99912.25;4289863;33;32993;-68
2023/08/10 02:13:14;;;;;;;3.72;1.55;;;;;;;25.52;42.23;99914.97;4302945;33;33803;-68
2023/08/10 02:15:42;;;;;;;5.00;1.80;;;;;;;25.52;42.21;99909.50;4303010;33;33637;-68
2023/08/10 02:18:11;;;;;;;3.30;1.85;;;;;;;25.51;42.19;99913.31;4278261;33;33931;-68
2023/08/10 02:20:39;;;;;;;2.53;1.60;;;;;;;25.52;42.20;99920.44;4289690;33;33661;-68
2023/08/10 02:23:07;;;;;;;2.92;1.80;;;;;;;25.49;42.16;99918.16;4290273;33;34204;-69
2023/08/10 02:25:34;;;;;;;4.55;1.92;;;;;;;25.49;42.11;99915.44;4277999;33;33304;-69
2023/08/10 02:28:02;;;;;;;3.10;2.03;;;;;;;25.51;42.03;99913.31;4294139;33;32321;-68
2023/08/10 02:30:29;;;;;;;3.25;1.90;;;;;;;25.51;42.01;99907.00;4262894;33;34541;-69
2023/08/10 02:32:57;;;;;;;5.32;1.83;;;;;;;25.50;42.01;99911.63;4263775;33;34069;-70
2023/08/10 02:35:25;;;;;;;3.17;2.03;;;;;;;25.50;41.99;99906.16;4275349;33;33696;-69
2023/08/10 02:37:52;;;;;;;3.55;1.90;;;;;;;25.50;41.98;99906.16;4251779;33;32256;-69
2023/08/10 02:40:21;;;;;;;3.55;1.90;;;;;;;25.49;42.01;99907.25;4288531;33;34071;-69
2023/08/10 02:42:48;;;;;;;3.58;2.05;;;;;;;25.49;42.00;99904.50;4275601;33;33796;-68
2023/08/10 02:45:17;;;;;;;4.53;2.10;;;;;;;25.49;41.99;99904.50;4251888;33;33330;-69
2023/08/10 02:47:44;;;;;;;3.00;1.67;;;;;;;25.49;41.98;99899.06;4263571;33;32307;-68
2023/08/10 02:50:12;;;;;;;4.30;1.90;;;;;;;25.49;41.97;99903.69;4287052;33;33493;-68
2023/08/10 02:52:40;;;;;;;3.78;1.70;;;;;;;25.48;41.94;99908.31;4263703;33;33888;-67
2023/08/10 02:55:10;;;;;;;4.37;2.35;;;;;;;25.48;42.02;99915.69;4263653;33;33652;-68
2023/08/10 02:57:38;;;;;;;4.65;1.87;;;;;;;25.47;42.07;99912.13;4275484;33;34196;-68
2023/08/10 03:00:06;;;;;;;3.40;1.77;;;;;;;25.48;42.00;99908.31;4285890;33;34788;-69
2023/08/10 03:02:34;;;;;;;3.00;1.70;;;;;;;25.47;41.97;99908.56;4277620;33;33036;-70
2023/08/10 03:05:03;;;;;;;3.90;1.80;;;;;;;25.47;41.94;99906.66;4289422;33;32747;-68
2023/08/10 03:07:30;;;;;;;5.35;2.08;;;;;;;25.45;41.97;99911.50;4301289;33;32963;-69
2023/08/10 03:09:58;;;;;;;4.53;2.17;;;;;;;25.46;41.95;99907.75;4301540;33;33894;-68
2023/08/10 03:12:26;;;;;;;2.92;1.90;;;;;;;25.45;41.95;99909.63;4289704;33;33889;-68
2023/08/10 03:14:54;;;;;;;4.70;1.95;;;;;;;25.45;41.92;99906.88;4289389;33;34155;-68
2023/08/10 03:17:22;;;;;;;2.70;1.87;;;;;;;25.46;41.92;99910.47;4289478;33;33469;-68
2023/08/10 03:19:51;;;;;;;3.17;1.92;;;;;;;25.44;41.87;99907.97;4277907;33;32565;-68
2023/08/10 03:22:19;;;;;;;3.92;1.77;;;;;;;25.44;41.84;99907.97;4301802;33;34375;-67
2023/08/10 03:24:46;;;;;;;3.17;1.80;;;;;;;25.45;41.82;99897.84;4289448;33;33475;-68
2023/08/10 03:27:17;;;;;;;3.83;2.00;;;;;;;25.45;41.82;99906.06;4286993;33;33809;-68
2023/08/10 03:29:44;;;;;;;4.62;2.03;;;;;;;25.44;41.84;99901.66;4263346;33;31821;-68
2023/08/10 03:32:12;;;;;;;4.75;2.00;;;;;;;25.43;41.80;99906.28;4287057;33;33509;-68
2023/08/10 03:34:40;;;;;;;4.07;2.35;;;;;;;25.42;41.80;99907.38;4288167;33;33570;-67
2023/08/10 03:37:07;;;;;;;3.53;2.35;;;;;;;25.43;41.84;99919.13;4263431;33;34132;-68
2023/08/10 03:39:37;;;;;;;3.13;2.00;;;;;;;25.42;41.89;99915.56;4287861;33;34285;-68
2023/08/10 03:42:05;;;;;;;4.97;2.45;;;;;;;25.43;41.86;99924.59;4286760;33;33843;-67
2023/08/10 03:44:33;;;;;;;3.12;1.95;;;;;;;25.41;41.85;99923.97;4275095;33;33546;-69
2023/08/10 03:47:01;;;;;;;4.62;2.22;;;;;;;25.40;41.87;99934.06;4275095;33;33178;-68
2023/08/10 03:49:29;;;;;;;6.07;2.30;;;;;;;25.40;41.85;99939.53;4263328;33;32977;-69
2023/08/10 03:51:57;;;;;;;5.90;2.50;;;;;;;25.40;41.83;99941.44;4275077;33;33978;-68
2023/08/10 03:54:24;;;;;;;6.70;2.35;;;;;;;25.40;41.82;99945.00;4274922;33;33838;-68
2023/08/10 03:56:53;;;;;;;4.75;2.05;;;;;;;25.39;41.83;99947.97;4263514;33;32128;-68
2023/08/10 03:59:21;;;;;;;4.47;2.25;;;;;;;25.40;41.85;99955.09;4277322;33;34517;-68
2023/08/10 04:01:50;;;;;;;3.92;2.10;;;;;;;25.38;41.81;99952.63;4277604;33;33948;-70
2023/08/10 04:04:18;;;;;;;4.82;2.50;;;;;;;25.37;41.82;99948.22;4276840;33;33541;-68
2023/08/10 04:06:46;;;;;;;3.75;2.22;;;;;;;25.38;41.80;99951.78;4289134;33;34188;-68
2023/08/10 04:09:14;;;;;;;5.37;2.28;;;;;;;25.38;41.81;99958.06;4265410;33;32648;-68
2023/08/10 04:11:42;;;;;;;3.12;1.92;;;;;;;25.37;41.82;99952.88;4300937;33;34042;-68
2023/08/10 04:14:10;;;;;;;4.05;2.15;;;;;;;25.37;41.83;99956.41;4288750;33;34234;-69
2023/08/10 04:16:37;;;;;;;4.10;2.28;;;;;;;25.38;41.81;99965.44;4288932;33;32228;-68
2023/08/10 04:19:05;;;;;;;8.90;2.12;;;;;;;25.37;41.79;99964.63;4289303;33;34667;-68
2023/08/10 04:21:33;;;;;;;3.58;2.20;;;;;;;25.37;41.76;99959.16;4276894;33;34183;-68
2023/08/10 04:24:00;;;;;;;3.15;1.92;;;;;;;25.37;41.74;99969.25;4301914;33;34203;-68
2023/08/10 04:26:29;;;;;;;5.40;2.17;;;;;;;25.36;41.74;99962.94;4277204;33;34071;-68
2023/08/10 04:28:58;;;;;;;4.40;2.50;;;;;;;25.36;41.73;99965.66;4288859;33;34623;-68
2023/08/10 04:31:25;;;;;;;3.75;2.20;;;;;;;25.36;41.71;99960.19;4301713;33;33505;-68
2023/08/10 04:33:53;;;;;;;3.80;2.05;;;;;;;25.35;41.72;99963.19;4288681;33;33958;-70
2023/08/10 04:36:21;;;;;;;4.30;2.30;;;;;;;25.34;41.74;99956.88;4288854;33;34070;-69
2023/08/10 04:38:49;;;;;;;3.55;2.08;;;;;;;25.33;41.76;99963.41;4288923;33;33659;-68
2023/08/10 04:41:17;;;;;;;4.68;2.30;;;;;;;25.33;41.78;99962.59;4288912;33;33893;-68
2023/08/10 04:43:45;;;;;;;3.03;1.83;;;;;;;25.32;41.81;99960.91;4276833;33;33781;-69
2023/08/10 04:46:13;;;;;;;5.62;2.45;;;;;;;25.32;41.79;99964.50;4276885;33;34102;-69
2023/08/10 04:48:43;;;;;;;4.25;2.30;;;;;;;25.31;41.82;99953.78;4265582;33;33729;-69
2023/08/10 04:51:12;;;;;;;6.25;2.28;;;;;;;25.31;41.85;99964.72;4277057;33;33498;-69
2023/08/10 04:53:40;;;;;;;3.83;2.10;;;;;;;25.31;41.92;99962.81;4302327;33;33685;-69
2023/08/10 04:56:08;;;;;;;4.30;2.40;;;;;;;25.30;41.98;99966.59;4266548;33;32900;-68
2023/08/10 04:58:35;;;;;;;5.65;2.20;;;;;;;25.29;41.99;99967.69;4290035;33;33599;-69
2023/08/10 05:01:03;;;;;;;6.53;2.30;;;;;;;25.30;42.02;99974.81;4276441;33;32827;-69
2023/08/10 05:03:31;;;;;;;6.12;2.42;;;;;;;25.30;42.06;99974.81;4276284;33;33840;-67
2023/08/10 05:05:59;;;;;;;6.78;2.30;;;;;;;25.31;42.08;99978.37;4288434;33;33058;-69
2023/08/10 05:08:27;;;;;;;4.95;2.08;;;;;;;25.29;42.12;99975.88;4288346;33;34481;-68
2023/08/10 05:10:54;;;;;;;3.85;2.12;;;;;;;25.31;42.16;99975.63;4276058;33;34648;-69
2023/08/10 05:13:22;;;;;;;3.95;2.37;;;;;;;25.30;42.16;99976.72;4288161;33;34074;-68
2023/08/10 05:15:50;;;;;;;7.53;2.50;;;;;;;25.30;42.20;99972.06;4288834;33;33157;-68
2023/08/10 05:18:20;;;;;;;4.90;2.20;;;;;;;25.29;42.21;99973.16;4277989;33;33822;-68
2023/08/10 05:20:47;;;;;;;;;;;;;;;25.28;42.27;99974.22;4278997;33;33488;-68
2023/08/10 05:23:15;;;;;;;4.75;2.20;;;;;;;25.38;42.04;99974.47;4290125;33;32935;-68
2023/08/10 05:25:43;;;;;;;4.12;2.40;;;;;;;25.30;42.20;99977.53;4302813;33;33435;-68
2023/08/10 05:28:11;;;;;;;5.35;2.50;;;;;;;25.29;42.33;99980.50;4303323;33;33877;-68
2023/08/10 05:30:39;;;;;;;5.15;3.00;;;;;;;25.28;42.38;99984.31;4289746;33;33924;-68
2023/08/10 05:33:06;;;;;;;4.95;2.65;;;;;;;25.26;42.46;99987.25;4303208;33;34495;-68
2023/08/10 05:35:34;;;;;;;5.10;2.50;;;;;;;25.25;42.49;99992.97;4290032;33;33213;-69
2023/08/10 05:38:02;;;;;;;4.78;2.25;;;;;;;25.24;42.51;99991.31;4266700;33;32994;-68
2023/08/10 05:40:30;;;;;;;5.75;3.03;;;;;;;25.24;42.54;99996.78;4277926;33;33065;-69
2023/08/10 05:42:57;;;;;;;4.43;2.55;;;;;;;25.24;42.56;99991.31;4290310;33;33972;-67
2023/08/10 05:45:26;;;;;;;6.07;2.87;;;;;;;25.23;42.63;99992.34;4278464;33;34278;-69
2023/08/10 05:47:53;;;;;;;4.87;2.70;;;;;;;25.21;42.66;99994.50;4290032;33;34322;-68
2023/08/10 05:50:21;;;;;;;5.37;2.70;;;;;;;25.19;42.72;100002.94;4278229;33;34771;-69
2023/08/10 05:52:49;;;;;;;4.65;2.70;;;;;;;25.17;42.69;100005.88;4278522;33;33871;-67
2023/08/10 05:55:17;;;;;;;4.10;2.70;;;;;;;25.18;42.73;100002.09;4290186;33;33447;-69
2023/08/10 05:57:45;;;;;;;5.50;2.58;;;;;;;25.17;42.80;100005.88;4290267;33;33606;-70
2023/08/10 06:00:15;;;;;;;4.25;2.70;;;;;;;25.17;42.78;100005.03;4290193;33;34811;-68
2023/08/10 06:02:44;;;;;;;4.62;2.62;;;;;;;25.18;42.81;100002.09;4290069;33;33865;-68
2023/08/10 06:05:12;;;;;;;;;;;;;;;25.16;42.89;100004.22;4290408;33;33350;-70
2023/08/10 06:07:41;;;;;;;6.05;2.90;;;;;;;25.26;42.66;100011.00;4289524;33;33041;-68
2023/08/10 06:10:09;;;;;;;4.78;2.85;;;;;;;25.16;42.85;100009.69;4303024;33;33875;-71
2023/08/10 06:12:36;;;;;;;5.90;2.90;;;;;;;25.14;42.94;100008.25;4289776;33;33702;-70
2023/08/10 06:15:05;;;;;;;5.55;2.65;;;;;;;25.11;42.99;100006.81;4289802;33;33640;-69
2023/08/10 06:17:33;;;;;;;4.40;2.62;;;;;;;25.11;43.02;99998.63;4289886;33;34543;-68
2023/08/10 06:20:07;;;;;;;4.50;2.62;;;;;;;25.12;43.07;100008.47;4289996;33;34347;-71
2023/08/10 06:22:36;;;;;;;5.78;3.00;;;;;;;25.11;43.06;100016.91;4290614;33;33559;-71
2023/08/10 06:25:05;;;;;;;;;;;;;;;25.11;43.10;100011.44;4278477;33;32179;-70
2023/08/10 06:27:33;;;;;;;4.15;2.45;;;;;;;25.22;42.78;100007.06;4284109;33;34980;-70
2023/08/10 06:30:01;;;;;;;4.85;2.50;;;;;;;25.14;42.95;100017.28;4275383;33;33292;-71
2023/08/10 06:32:28;;;;;;;4.05;2.25;;;;;;;25.11;43.02;100012.28;4263630;33;34788;-70
2023/08/10 06:34:56;;;;;;;4.45;2.60;;;;;;;25.11;43.00;100019.63;4263625;33;32721;-68
2023/08/10 06:37:24;;;;;;;4.28;2.58;;;;;;;25.11;42.97;100020.47;4275090;33;33732;-68
2023/08/10 06:39:52;;;;;;;4.37;2.70;;;;;;;25.11;43.02;100027.84;4263426;33;32959;-69
2023/08/10 06:42:19;;;;;;;3.67;2.40;;;;;;;25.12;42.96;100029.50;4275400;33;33110;-68
2023/08/10 06:44:52;;;;;;;3.87;2.15;;;;;;;25.12;42.94;100027.59;4275003;33;32431;-68
2023/08/10 06:47:19;;;;;;;4.40;2.28;;;;;;;25.13;42.89;100023.81;4263393;33;32755;-68
2023/08/10 06:49:48;;;;;;;4.47;2.30;;;;;;;25.14;42.85;100036.41;4288779;33;33589;-69
2023/08/10 06:52:16;;;;;;;3.67;2.33;;;;;;;25.14;42.84;100044.59;4263863;33;33539;-68
2023/08/10 06:54:44;;;;;;;3.83;2.10;;;;;;;25.16;42.86;100039.72;4251903;33;34110;-69
2023/08/10 06:57:11;;;;;;;4.45;2.42;;;;;;;25.16;42.80;100042.44;4288358;33;33863;-68
2023/08/10 06:59:39;;;;;;;4.43;2.10;;;;;;;25.17;42.82;100043.28;4283505;33;33999;-67
2023/08/10 07:02:10;;;;;;;3.50;2.05;;;;;;;25.17;42.88;100049.56;4278023;33;32959;-69
2023/08/10 07:04:39;;;;;;;4.03;2.28;;;;;;;25.18;42.87;100053.97;4302660;33;34064;-69
2023/08/10 07:07:07;;;;;;;3.75;2.00;;;;;;;25.18;42.79;100053.97;4289673;33;33138;-70
2023/08/10 07:09:36;;;;;;;3.92;2.28;;;;;;;25.18;42.79;100047.66;4289566;33;34713;-69
2023/08/10 07:12:04;;;;;;;3.80;2.12;;;;;;;25.17;42.89;100043.28;4265752;33;33723;-71
2023/08/10 07:14:32;;;;;;;5.07;2.15;;;;;;;25.19;42.86;100047.44;4301610;33;33947;-71
2023/08/10 07:16:59;;;;;;;3.78;2.10;;;;;;;25.19;42.87;100049.34;4302105;33;33964;-71
2023/08/10 07:19:27;;;;;;;3.45;2.20;;;;;;;25.21;42.95;100054.56;4277058;33;34179;-70
2023/08/10 07:21:55;;;;;;;3.58;2.25;;;;;;;25.21;42.89;100054.56;4288165;33;33619;-69
2023/08/10 07:24:23;;;;;;;6.65;2.20;;;;;;;25.22;42.91;100054.34;4263448;33;32380;-72
2023/08/10 07:26:52;;;;;;;3.80;2.20;;;;;;;25.23;42.94;100057.87;4263526;33;34633;-70
2023/08/10 07:29:20;;;;;;;3.83;2.23;;;;;;;25.23;42.97;100060.63;4276065;33;34076;-70
2023/08/10 07:31:47;;;;;;;3.53;1.85;;;;;;;25.24;42.94;100057.69;4287893;33;33643;-69
2023/08/10 07:34:15;;;;;;;4.28;2.33;;;;;;;25.25;42.95;100066.69;4276153;33;32323;-70
2023/08/10 07:36:43;;;;;;;5.40;2.25;;;;;;;25.24;42.85;100063.13;4277020;33;32508;-71
2023/08/10 07:39:13;;;;;;;4.68;2.20;;;;;;;25.26;42.89;100057.44;4289178;33;33835;-69
2023/08/10 07:41:40;;;;;;;;;;;;;;;25.25;42.92;100056.59;4302705;33;34511;-68
2023/08/10 07:44:08;;;;;;;4.32;2.20;;;;;;;25.36;42.78;100057.69;4302710;33;34313;-68
2023/08/10 07:46:36;;;;;;;5.50;2.10;;;;;;;25.28;42.88;100061.63;4302420;33;34718;-68
2023/08/10 07:49:03;;;;;;;4.12;2.20;;;;;;;25.26;42.94;100061.00;4288809;33;33901;-68
2023/08/10 07:51:32;;;;;;;3.85;2.10;;;;;;;25.26;42.94;100061.00;4265898;33;32822;-68
2023/08/10 07:53:59;;;;;;;2.72;1.58;;;;;;;25.26;42.97;100060.16;4288889;33;32343;-69
2023/08/10 07:56:26;;;;;;;4.28;2.12;;;;;;;25.27;42.96;100059.09;4289034;33;34127;-68
2023/08/10 07:58:54;;;;;;;3.70;2.03;;;;;;;25.28;42.95;100055.31;4277297;33;32973;-68
2023/08/10 08:01:22;;;;;;;3.78;1.90;;;;;;;25.28;42.93;100060.78;4288806;33;33920;-69
2023/08/10 08:03:50;;;;;;;4.65;2.47;;;;;;;25.28;42.94;100053.44;4302070;33;34801;-68
2023/08/10 08:06:17;;;;;;;3.50;2.10;;;;;;;25.29;42.92;100062.44;4265451;33;32256;-68
2023/08/10 08:08:45;;;;;;;3.37;2.08;;;;;;;25.31;42.91;100068.50;4288864;33;33382;-68
2023/08/10 08:11:13;;;;;;;3.33;2.10;;;;;;;25.30;42.89;100061.37;4265285;33;32778;-69
2023/08/10 08:13:41;;;;;;;5.28;1.90;;;;;;;25.31;42.90;100063.03;4288772;33;33911;-68
2023/08/10 08:16:09;;;;;;;5.65;2.12;;;;;;;25.32;42.89;100075.63;4289085;33;33718;-69
2023/08/10 08:18:45;;;;;;;3.90;2.10;;;;;;;25.32;42.89;100072.88;4302270;33;33503;-69
2023/08/10 08:21:14;;;;;;;3.37;2.00;;;;;;;25.33;42.86;100069.12;4265637;33;33777;-69
2023/08/10 08:23:42;;;;;;;3.03;1.95;;;;;;;25.33;42.86;100074.56;4301995;33;33532;-69
2023/08/10 08:26:11;;;;;;;4.22;2.08;;;;;;;25.33;42.84;100075.41;4277170;33;34667;-69
2023/08/10 08:28:38;;;;;;;5.15;2.30;;;;;;;25.33;42.85;100078.13;4265234;33;33590;-69
2023/08/10 08:31:06;;;;;;;3.50;2.00;;;;;;;25.33;42.85;100078.13;4288763;33;33945;-69
2023/08/10 08:33:34;;;;;;;5.32;1.80;;;;;;;25.33;42.84;100080.87;4287322;33;33348;-69
2023/08/10 08:36:02;;;;;;;3.78;2.28;;;;;;;25.34;42.83;100078.97;4287682;33;33486;-68
2023/08/10 08:38:30;;;;;;;4.50;2.12;;;;;;;25.35;42.82;100080.63;4288672;33;34288;-69
2023/08/10 08:40:57;;;;;;;3.58;2.10;;;;;;;25.36;42.80;100085.00;4277087;33;34603;-69
2023/08/10 08:43:25;;;;;;;3.42;1.80;;;;;;;25.37;42.78;100086.72;4276792;33;32078;-69
2023/08/10 08:45:52;;;;;;;3.53;2.03;;;;;;;25.36;42.78;100093.22;4288670;33;33983;-69
2023/08/10 08:48:20;;;;;;;4.62;2.05;;;;;;;25.37;42.75;100081.25;4288787;33;34860;-69
2023/08/10 08:50:48;;;;;;;3.75;2.10;;;;;;;25.37;42.73;100082.06;4264904;33;32111;-69
2023/08/10 08:53:16;;;;;;;3.60;1.98;;;;;;;25.37;42.74;100087.53;4276610;33;34236;-68
2023/08/10 08:55:46;;;;;;;5.25;1.77;;;;;;;25.38;42.74;100088.37;4288550;33;34594;-68
2023/08/10 18:32:13;;;;;;;2.08;1.33;;;;;;;25.49;40.74;100100.38;4503667;27;20093;-71
2023/08/10 18:34:43;;;;;;;2.60;1.48;;;;;;;25.47;40.85;100106.09;4276787;33;34878;-70
2023/08/10 18:37:11;;;;;;;5.28;2.05;;;;;;;25.48;40.81;100106.94;4301544;33;33540;-69
2023/08/10 18:39:39;;;;;;;6.45;2.10;;;;;;;25.49;40.67;100112.16;4299956;33;33492;-70
2023/08/10 18:42:09;;;;;;;5.12;2.37;;;;;;;25.48;40.68;100118.69;4296992;33;33815;-69
2023/08/10 18:44:39;;;;;;;5.00;2.20;;;;;;;25.50;40.71;100122.00;4302651;33;34798;-70
2023/08/10 18:47:07;;;;;;;8.82;2.60;;;;;;;25.50;40.52;100123.91;4289404;33;32992;-69
2023/08/10 18:49:39;;;;;;;4.20;2.08;;;;;;;25.50;40.45;100132.09;4277304;33;32107;-69
2023/08/10 18:52:07;;;;;;;7.57;2.50;;;;;;;25.49;40.36;100125.81;4302809;33;33651;-69
2023/08/10 18:54:37;;;;;;;5.07;2.30;;;;;;;25.50;40.36;100126.62;4302571;33;34462;-69
2023/08/10 18:57:05;;;;;;;6.33;2.30;;;;;;;25.50;40.32;100129.38;4277717;33;32899;-69
2023/08/10 18:59:33;;;;;;;5.35;2.28;;;;;;;25.50;40.30;100124.72;4266015;33;32960;-69
2023/08/10 19:02:02;;;;;;;5.07;2.65;;;;;;;25.50;40.33;100132.94;4289713;33;34683;-71
2023/08/10 19:04:31;;;;;;;8.45;2.53;;;;;;;25.50;40.34;100132.94;4304566;33;33655;-70
2023/08/10 19:06:59;;;;;;;6.03;2.78;;;;;;;25.49;40.37;100135.91;4306061;33;33470;-70
2023/08/10 19:09:29;;;;;;;6.85;3.20;;;;;;;25.48;40.46;100131.50;4259961;33;32378;-70
2023/08/10 19:11:57;;;;;;;5.93;2.20;;;;;;;25.49;40.45;100131.28;4281489;33;32701;-69
2023/08/10 19:14:26;;;;;;;4.50;2.45;;;;;;;25.49;40.53;100138.63;4298708;33;34835;-70
2023/08/10 19:16:54;;;;;;;5.05;2.50;;;;;;;25.49;40.58;100144.09;4289592;33;34483;-70
2023/08/10 19:19:22;;;;;;;4.45;2.10;;;;;;;25.49;40.58;100144.09;4265440;33;32365;-69
2023/08/10 19:21:51;;;;;;;5.97;2.60;;;;;;;25.49;40.66;100144.09;4277608;33;33688;-71
2023/08/10 19:24:20;;;;;;;5.60;2.78;;;;;;;25.49;40.60;100149.56;4277124;33;33807;-69
2023/08/10 19:26:49;;;;;;;6.00;3.30;;;;;;;25.49;40.49;100142.19;4277436;33;33822;-69
2023/08/10 19:29:18;;;;;;;6.00;2.80;;;;;;;25.49;40.40;100142.19;4265472;33;30931;-68
2023/08/10 19:31:47;;;;;;;4.43;2.47;;;;;;;25.50;40.42;100146.59;4300758;33;33493;-69
2023/08/10 19:34:16;;;;;;;7.75;2.90;;;;;;;25.50;40.45;100152.06;4287029;33;33685;-69
2023/08/10 19:36:44;;;;;;;6.57;3.00;;;;;;;25.50;40.43;100154.78;4289202;33;34096;-70
2023/08/10 19:39:12;;;;;;;6.57;3.15;;;;;;;25.47;40.39;100155.28;4288092;33;34371;-69
2023/08/10 19:41:40;;;;;;;6.10;2.80;;;;;;;25.47;40.35;100160.72;4288566;33;32620;-69
2023/08/10 19:44:09;;;;;;;6.12;2.85;;;;;;;25.49;40.34;100163.22;4300492;33;33873;-69
2023/08/10 19:46:38;;;;;;;5.82;3.40;;;;;;;25.49;40.30;100160.50;4277497;33;33861;-69
2023/08/10 19:49:06;;;;;;;5.37;2.58;;;;;;;25.48;40.21;100164.28;4288587;33;32992;-69
2023/08/10 19:51:34;;;;;;;5.25;2.80;;;;;;;25.47;40.21;100163.47;4288565;33;33641;-69
2023/08/10 19:54:04;;;;;;;6.28;2.75;;;;;;;25.45;40.15;100166.41;4301536;33;35284;-69
2023/08/10 19:56:32;;;;;;;4.15;2.50;;;;;;;25.45;40.12;100171.03;4276972;33;32920;-69
2023/08/10 19:59:02;;;;;;;3.65;2.10;;;;;;;25.45;40.18;100169.13;4294362;33;33475;-67
2023/08/10 20:01:32;;;;;;;3.60;2.00;;;;;;;25.44;40.18;100170.22;4289026;33;34810;-69
2023/08/10 20:04:00;;;;;;;4.25;2.20;;;;;;;25.44;40.09;100177.56;4301386;33;34758;-69
2023/08/10 20:06:29;;;;;;;3.78;1.95;;;;;;;25.43;40.09;100168.56;4297629;33;33889;-70
2023/08/10 20:08:58;;;;;;;5.68;2.20;;;;;;;25.43;40.10;100171.28;4308653;33;33758;-68
2023/08/10 20:11:26;;;;;;;4.60;2.50;;;;;;;25.45;39.98;100171.03;4288991;33;33851;-69
2023/08/10 20:13:55;;;;;;;5.28;2.53;;;;;;;25.44;40.00;100169.37;4302032;33;33896;-70
2023/08/10 20:16:23;;;;;;;4.68;2.37;;;;;;;25.43;40.07;100168.56;4279545;33;32853;-70
2023/08/10 20:18:52;;;;;;;3.72;2.17;;;;;;;25.44;39.98;100169.37;4286409;33;32892;-69
2023/08/10 20:21:20;;;;;;;4.30;2.17;;;;;;;25.44;40.07;100180.31;4284866;33;32959;-69
2023/08/10 20:23:48;;;;;;;4.30;2.40;;;;;;;25.43;40.09;100170.44;4288554;33;33667;-69
2023/08/10 20:26:19;;;;;;;4.75;2.28;;;;;;;25.43;39.96;100170.44;4276601;33;32618;-69
2023/08/10 20:28:47;;;;;;;6.05;2.50;;;;;;;25.43;39.72;100167.72;4277083;33;33304;-70
2023/08/10 20:31:15;;;;;;;5.70;2.12;;;;;;;25.43;39.66;100167.72;4264408;33;32787;-70
2023/08/10 20:33:46;;;;;;;5.47;2.30;;;;;;;25.43;39.73;100165.00;4277057;33;34038;-69
2023/08/10 20:36:17;;;;;;;10.10;2.55;;;;;;;25.44;39.73;100161.19;4265649;33;32255;-69
2023/08/10 20:38:47;;;;;;;4.32;2.30;;;;;;;25.44;39.72;100167.47;4288980;33;34054;-69
2023/08/10 20:41:15;;;;;;;4.93;2.37;;;;;;;25.46;39.77;100167.28;4293590;33;33007;-69
2023/08/10 20:43:43;;;;;;;6.75;2.42;;;;;;;25.44;39.84;100177.56;4305118;33;34769;-68
2023/08/10 20:46:20;;;;;;;5.28;2.12;;;;;;;25.44;39.83;100175.69;4268338;33;33952;-69
2023/08/10 20:48:49;;;;;;;4.72;2.47;;;;;;;25.46;39.73;100175.47;4286082;33;34158;-69
2023/08/10 20:51:18;;;;;;;4.93;2.10;;;;;;;25.44;39.66;100177.56;4291922;33;33663;-69
2023/08/10 20:53:47;;;;;;;7.47;1.90;;;;;;;25.44;39.67;100174.84;4279909;33;34918;-69
2023/08/10 20:56:16;;;;;;;4.10;2.15;;;;;;;25.45;39.56;100174.59;4276669;33;33521;-69
2023/08/10 20:58:45;;;;;;;4.30;2.00;;;;;;;25.45;39.44;100173.78;4253173;33;33312;-69
2023/08/10 21:01:14;;;;;;;4.62;2.22;;;;;;;25.45;39.42;100179.25;4288509;33;33354;-68
2023/08/10 21:03:45;;;;;;;4.82;2.17;;;;;;;25.44;39.33;100178.41;4280829;33;34377;-69
2023/08/10 21:06:13;;;;;;;6.47;2.42;;;;;;;25.44;39.35;100177.56;4263274;33;33872;-67
2023/08/10 21:08:40;;;;;;;4.95;1.85;;;;;;;25.43;39.46;100179.47;4262792;33;33460;-67